Red Fork, Arkansas
Current Conditions -  °F | °C
As of 4:55 PM on Tuesday 27 Jan 2015 (Local Time) from KRNV Reporting Station
Clear Clear  
Wind Chill: 57°   Ceiling: Unl
Heat Index: 57°   Visibility: 10mi
Dew Point: 41°   Wind: 8mph
Humidity: 54%   Direction: 360°N
Pressure: 30.13"   Gusts: NA
Location:  33.8911°N, 91.2569°W
Report Text: KRNV 272255Z AUTO 36007KT 10SM CLR 14/05 A3013 RMK AO2 T01410049
Loading
Personal Weather Stations






























Interactive Weather Map New forecast layout! Learn more

10-Day Weather Forecast

Advertisements
Track Severe Weather on mobile